Grenadines III — CRA5628 — position and weather

sailwx.info

Track history (hours):
 
Tides and Currents Weather Stations Pressure Air Temp Water Temp Dewpoint Dewpoint Depression Visibility Wind Speed Wind Dir Waves Ship Positions

Grenadines III

Last reported at 2014-Sep-17 04:33 UTC. Time now 2014-Sep-18 03:40 UTC.
Position N 43°06' E 005°45'.

Type: Pilot. MMSI: 225910870.

Date/timePositionNaut miles runAvg speedWind from/ knotsBaromVisibWave heightAir tempDewpointWater temp
2014-Sep-17 04:33N 43°06' E 005°45'6 5.9
2014-Sep-17 03:33N 43°02' E 005°50'7 7.2
2014-Sep-17 02:33N 43°01' E 006°00'7 7.3
2014-Sep-17 01:33N 43°01' E 006°10'8 7.8
2014-Sep-17 00:33N 43°03' E 006°20'8 8.0
2014-Sep-16 23:33N 43°06' E 006°30'8 7.6
2014-Sep-16 22:33N 43°10' E 006°40'8 7.5
2014-Sep-16 21:33N 43°16' E 006°46'7 0.4
2014-Sep-16 05:29N 43°17' E 006°37'1010.6
2014-Sep-16 04:33N 43°13' E 006°50'1111.1
2014-Sep-16 03:33N 43°07' E 007°02'  
2014-Sep-09 11:33N 42°50' E 010°13'136 2.6
2014-Sep-07 07:33N 43°43' E 007°21'0 0.0
2014-Sep-07 06:18N 43°43' E 007°21'  
Track history (hours):
 
Tides and Currents Weather Stations Pressure Air Temp Water Temp Dewpoint Dewpoint Depression Visibility Wind Speed Wind Dir Waves Ship Positions

Grenadines III

Last reported at 2014-Sep-17 04:33 UTC. Time now 2014-Sep-18 03:40 UTC.
Position N 43°06' E 005°45'.

Type: Pilot. MMSI: 225910870.

Date/timePositionNaut miles runAvg speedWind from/ knotsBaromVisibWave heightAir tempDewpointWater temp
2014-Sep-17 04:33N 43°06' E 005°45'6 5.9
2014-Sep-17 03:33N 43°02' E 005°50'7 7.2
2014-Sep-17 02:33N 43°01' E 006°00'7 7.3
2014-Sep-17 01:33N 43°01' E 006°10'8 7.8
2014-Sep-17 00:33N 43°03' E 006°20'8 8.0
2014-Sep-16 23:33N 43°06' E 006°30'8 7.6
2014-Sep-16 22:33N 43°10' E 006°40'8 7.5
2014-Sep-16 21:33N 43°16' E 006°46'7 0.4
2014-Sep-16 05:29N 43°17' E 006°37'1010.6
2014-Sep-16 04:33N 43°13' E 006°50'1111.1
2014-Sep-16 03:33N 43°07' E 007°02'  
2014-Sep-09 11:33N 42°50' E 010°13'136 2.6
2014-Sep-07 07:33N 43°43' E 007°21'0 0.0
2014-Sep-07 06:18N 43°43' E 007°21'  

Dump ship's entire track history